sensor_id;sensor_type;location;lat;lon;timestamp;pressure;altitude;pressure_sealevel;temperature;humidity
35892;BME280;21993;42.672;23.296;2023-04-26T00:01:44;93797.13;;;12.41;72.62
35892;BME280;21993;42.672;23.296;2023-04-26T00:04:09;93790.91;;;12.34;72.84
35892;BME280;21993;42.672;23.296;2023-04-26T00:06:34;93792.38;;;12.36;72.76
35892;BME280;21993;42.672;23.296;2023-04-26T00:09:01;93792.03;;;12.39;73.19
35892;BME280;21993;42.672;23.296;2023-04-26T00:11:27;93786.47;;;12.26;73.44
35892;BME280;21993;42.672;23.296;2023-04-26T00:13:52;93776.66;;;12.12;74.07
35892;BME280;21993;42.672;23.296;2023-04-26T00:16:18;93771.06;;;12.15;73.80
35892;BME280;21993;42.672;23.296;2023-04-26T00:18:44;93770.22;;;12.15;73.73
35892;BME280;21993;42.672;23.296;2023-04-26T00:21:10;93763.81;;;12.09;73.93
35892;BME280;21993;42.672;23.296;2023-04-26T00:23:36;93767.47;;;11.75;75.29
35892;BME280;21993;42.672;23.296;2023-04-26T00:26:02;93770.63;;;11.95;74.76
35892;BME280;21993;42.672;23.296;2023-04-26T00:28:28;93770.25;;;11.98;74.04
35892;BME280;21993;42.672;23.296;2023-04-26T00:30:54;93764.00;;;11.99;73.23
35892;BME280;21993;42.672;23.296;2023-04-26T00:33:25;93754.00;;;11.95;72.83
35892;BME280;21993;42.672;23.296;2023-04-26T00:35:51;93755.13;;;12.00;72.60
35892;BME280;21993;42.672;23.296;2023-04-26T00:38:16;93756.13;;;11.91;73.17
35892;BME280;21993;42.672;23.296;2023-04-26T00:40:41;93760.41;;;11.84;73.45
35892;BME280;21993;42.672;23.296;2023-04-26T00:43:07;93758.78;;;11.83;73.65
35892;BME280;21993;42.672;23.296;2023-04-26T00:45:33;93758.94;;;11.81;73.77
35892;BME280;21993;42.672;23.296;2023-04-26T00:48:00;93755.81;;;11.94;73.40
35892;BME280;21993;42.672;23.296;2023-04-26T00:50:26;93755.97;;;11.93;73.01
35892;BME280;21993;42.672;23.296;2023-04-26T00:52:52;93760.41;;;11.84;74.05
35892;BME280;21993;42.672;23.296;2023-04-26T00:55:20;93757.66;;;11.86;73.64
35892;BME280;21993;42.672;23.296;2023-04-26T00:57:47;93763.03;;;11.76;73.88
35892;BME280;21993;42.672;23.296;2023-04-26T01:00:13;93758.75;;;11.75;73.41
35892;BME280;21993;42.672;23.296;2023-04-26T01:02:39;93756.47;;;11.72;73.55
35892;BME280;21993;42.672;23.296;2023-04-26T01:05:05;93755.16;;;11.68;73.49
35892;BME280;21993;42.672;23.296;2023-04-26T01:07:31;93767.63;;;11.74;73.83
35892;BME280;21993;42.672;23.296;2023-04-26T01:09:58;93757.63;;;11.53;74.50
35892;BME280;21993;42.672;23.296;2023-04-26T01:12:24;93773.56;;;11.51;74.82
35892;BME280;21993;42.672;23.296;2023-04-26T01:14:51;93781.13;;;11.54;74.62
35892;BME280;21993;42.672;23.296;2023-04-26T01:17:16;93771.25;;;11.48;74.49
35892;BME280;21993;42.672;23.296;2023-04-26T01:19:46;93759.94;;;11.56;74.24
35892;BME280;21993;42.672;23.296;2023-04-26T01:22:12;93757.31;;;11.48;74.76
35892;BME280;21993;42.672;23.296;2023-04-26T01:24:37;93737.44;;;11.37;75.00
35892;BME280;21993;42.672;23.296;2023-04-26T01:27:04;93744.16;;;11.32;74.91
35892;BME280;21993;42.672;23.296;2023-04-26T01:29:30;93743.00;;;11.42;74.39
35892;BME280;21993;42.672;23.296;2023-04-26T01:31:56;93749.75;;;11.28;74.89
35892;BME280;21993;42.672;23.296;2023-04-26T01:34:21;93761.56;;;11.16;75.53
35892;BME280;21993;42.672;23.296;2023-04-26T01:36:46;93758.91;;;11.16;75.53
35892;BME280;21993;42.672;23.296;2023-04-26T01:39:12;93752.84;;;11.16;76.31
35892;BME280;21993;42.672;23.296;2023-04-26T01:41:37;93765.16;;;11.23;75.32
35892;BME280;21993;42.672;23.296;2023-04-26T01:44:03;93763.03;;;11.11;76.18
35892;BME280;21993;42.672;23.296;2023-04-26T01:46:28;93778.63;;;11.12;76.34
35892;BME280;21993;42.672;23.296;2023-04-26T01:48:54;93768.63;;;11.24;76.18
35892;BME280;21993;42.672;23.296;2023-04-26T01:51:19;93763.34;;;11.08;76.67
35892;BME280;21993;42.672;23.296;2023-04-26T01:53:45;93753.69;;;11.24;75.82
35892;BME280;21993;42.672;23.296;2023-04-26T01:56:11;93752.56;;;11.27;75.79
35892;BME280;21993;42.672;23.296;2023-04-26T01:58:36;93747.28;;;11.11;76.12
35892;BME280;21993;42.672;23.296;2023-04-26T02:01:08;93749.22;;;11.09;75.86
35892;BME280;21993;42.672;23.296;2023-04-26T02:03:34;93746.59;;;11.09;75.48
35892;BME280;21993;42.672;23.296;2023-04-26T02:06:00;93734.47;;;11.24;74.28
35892;BME280;21993;42.672;23.296;2023-04-26T02:08:25;93726.75;;;11.14;74.76
35892;BME280;21993;42.672;23.296;2023-04-26T02:10:51;93748.75;;;11.05;74.69
35892;BME280;21993;42.672;23.296;2023-04-26T02:13:16;93741.00;;;10.95;75.07
35892;BME280;21993;42.672;23.296;2023-04-26T02:15:45;93743.31;;;10.98;74.84
35892;BME280;21993;42.672;23.296;2023-04-26T02:18:11;93732.81;;;10.98;74.34
35892;BME280;21993;42.672;23.296;2023-04-26T02:20:39;93731.81;;;10.91;74.21
35892;BME280;21993;42.672;23.296;2023-04-26T02:23:07;93740.50;;;10.92;74.58
35892;BME280;21993;42.672;23.296;2023-04-26T02:25:33;93737.56;;;10.95;74.10
35892;BME280;21993;42.672;23.296;2023-04-26T02:27:58;93737.88;;;10.92;73.73
35892;BME280;21993;42.672;23.296;2023-04-26T02:30:24;93736.91;;;11.01;73.09
35892;BME280;21993;42.672;23.296;2023-04-26T02:32:52;93734.59;;;10.90;73.35
35892;BME280;21993;42.672;23.296;2023-04-26T02:35:18;93744.63;;;10.94;72.92
35892;BME280;21993;42.672;23.296;2023-04-26T02:37:43;93740.84;;;10.97;72.92
35892;BME280;21993;42.672;23.296;2023-04-26T02:40:13;93751.16;;;10.82;73.17
35892;BME280;21993;42.672;23.296;2023-04-26T02:42:38;93745.91;;;10.90;73.40
35892;BME280;21993;42.672;23.296;2023-04-26T02:45:04;93749.53;;;10.89;73.26
35892;BME280;21993;42.672;23.296;2023-04-26T02:47:31;93739.84;;;10.90;73.33
35892;BME280;21993;42.672;23.296;2023-04-26T02:49:56;93733.56;;;10.75;74.06
35892;BME280;21993;42.672;23.296;2023-04-26T02:52:22;93723.44;;;10.80;74.12
35892;BME280;21993;42.672;23.296;2023-04-26T02:54:47;93726.72;;;10.90;73.83
35892;BME280;21993;42.672;23.296;2023-04-26T02:57:13;93729.53;;;10.96;73.65
35892;BME280;21993;42.672;23.296;2023-04-26T02:59:38;93723.63;;;10.94;74.54
35892;BME280;21993;42.672;23.296;2023-04-26T03:02:03;93720.66;;;11.06;74.65
35892;BME280;21993;42.672;23.296;2023-04-26T03:04:32;93720.66;;;11.06;75.04
35892;BME280;21993;42.672;23.296;2023-04-26T03:06:58;93722.94;;;11.00;75.80
35892;BME280;21993;42.672;23.296;2023-04-26T03:09:23;93722.94;;;11.00;75.88
35892;BME280;21993;42.672;23.296;2023-04-26T03:11:48;93717.22;;;11.05;75.82
35892;BME280;21993;42.672;23.296;2023-04-26T03:14:14;93721.31;;;10.99;76.02
35892;BME280;21993;42.672;23.296;2023-04-26T03:16:40;93722.94;;;11.00;75.27
35892;BME280;21993;42.672;23.296;2023-04-26T03:19:06;93722.47;;;10.97;76.37
35892;BME280;21993;42.672;23.296;2023-04-26T03:21:32;93723.94;;;10.99;76.24
35892;BME280;21993;42.672;23.296;2023-04-26T03:23:58;93715.72;;;10.86;76.86
35892;BME280;21993;42.672;23.296;2023-04-26T03:26:23;93727.88;;;10.95;77.18
35892;BME280;21993;42.672;23.296;2023-04-26T03:28:48;93718.03;;;11.06;76.52
35892;BME280;21993;42.672;23.296;2023-04-26T03:31:14;93724.28;;;11.13;76.71
35892;BME280;21993;42.672;23.296;2023-04-26T03:33:39;93722.66;;;11.12;76.68
35892;BME280;21993;42.672;23.296;2023-04-26T03:36:05;93720.69;;;11.14;75.97
35892;BME280;21993;42.672;23.296;2023-04-26T03:38:31;93719.69;;;11.07;75.29
35892;BME280;21993;42.672;23.296;2023-04-26T03:40:56;93730.53;;;11.20;75.22
35892;BME280;21993;42.672;23.296;2023-04-26T03:43:22;93732.66;;;11.16;75.40
35892;BME280;21993;42.672;23.296;2023-04-26T03:45:48;93734.97;;;11.27;75.32
35892;BME280;21993;42.672;23.296;2023-04-26T03:48:14;93739.06;;;11.22;75.10
35892;BME280;21993;42.672;23.296;2023-04-26T03:50:40;93742.16;;;11.17;76.02
35892;BME280;21993;42.672;23.296;2023-04-26T03:53:06;93736.09;;;11.17;75.45
35892;BME280;21993;42.672;23.296;2023-04-26T03:55:31;93740.72;;;11.31;75.12
35892;BME280;21993;42.672;23.296;2023-04-26T03:57:57;93742.34;;;11.32;75.57
35892;BME280;21993;42.672;23.296;2023-04-26T04:00:22;93740.53;;;11.16;75.31
35892;BME280;21993;42.672;23.296;2023-04-26T04:02:48;93749.09;;;11.18;74.91
35892;BME280;21993;42.672;23.296;2023-04-26T04:05:14;93748.13;;;11.27;75.07
35892;BME280;21993;42.672;23.296;2023-04-26T04:07:39;93750.75;;;11.36;74.87
35892;BME280;21993;42.672;23.296;2023-04-26T04:10:05;93753.19;;;11.37;75.18
35892;BME280;21993;42.672;23.296;2023-04-26T04:12:31;93758.63;;;11.44;74.65
35892;BME280;21993;42.672;23.296;2023-04-26T04:14:56;93762.56;;;11.48;74.25
35892;BME280;21993;42.672;23.296;2023-04-26T04:17:22;93756.81;;;11.44;73.92
35892;BME280;21993;42.672;23.296;2023-04-26T04:19:47;93762.09;;;11.44;74.36
35892;BME280;21993;42.672;23.296;2023-04-26T04:22:13;93759.28;;;11.46;74.49
35892;BME280;21993;42.672;23.296;2023-04-26T04:24:38;93761.25;;;11.52;74.46
35892;BME280;21993;42.672;23.296;2023-04-26T04:27:03;93762.22;;;11.51;74.15
35892;BME280;21993;42.672;23.296;2023-04-26T04:29:29;93765.00;;;11.57;73.80
35892;BME280;21993;42.672;23.296;2023-04-26T04:31:55;93779.63;;;11.60;73.50
35892;BME280;21993;42.672;23.296;2023-04-26T04:34:21;93770.63;;;11.46;74.52
35892;BME280;21993;42.672;23.296;2023-04-26T04:36:48;93766.00;;;11.48;73.94
35892;BME280;21993;42.672;23.296;2023-04-26T04:39:14;93767.47;;;11.59;73.79
35892;BME280;21993;42.672;23.296;2023-04-26T04:41:41;93769.47;;;11.57;73.75
35892;BME280;21993;42.672;23.296;2023-04-26T04:44:16;93772.59;;;11.69;73.78
35892;BME280;21993;42.672;23.296;2023-04-26T04:46:43;93763.38;;;11.81;73.58
35892;BME280;21993;42.672;23.296;2023-04-26T04:49:10;93767.66;;;11.82;73.01
35892;BME280;21993;42.672;23.296;2023-04-26T04:51:37;93774.56;;;11.83;72.67
35892;BME280;21993;42.672;23.296;2023-04-26T04:54:13;93778.81;;;11.92;72.48
35892;BME280;21993;42.672;23.296;2023-04-26T04:56:38;93779.50;;;11.94;71.97
35892;BME280;21993;42.672;23.296;2023-04-26T04:59:04;93775.53;;;11.90;72.14
35892;BME280;21993;42.672;23.296;2023-04-26T05:01:30;93769.91;;;11.77;72.53
35892;BME280;21993;42.672;23.296;2023-04-26T05:03:57;93765.53;;;11.86;72.49
35892;BME280;21993;42.672;23.296;2023-04-26T05:06:23;93770.09;;;12.00;71.60
35892;BME280;21993;42.672;23.296;2023-04-26T05:08:48;93765.66;;;11.92;72.41
35892;BME280;21993;42.672;23.296;2023-04-26T05:11:13;93769.09;;;12.01;71.61
35892;BME280;21993;42.672;23.296;2023-04-26T05:13:39;93772.56;;;12.01;72.59
35892;BME280;21993;42.672;23.296;2023-04-26T05:16:05;93772.72;;;12.08;71.55
35892;BME280;21993;42.672;23.296;2023-04-26T05:18:30;93773.69;;;12.07;71.91
35892;BME280;21993;42.672;23.296;2023-04-26T05:20:56;93769.41;;;12.22;70.93
35892;BME280;21993;42.672;23.296;2023-04-26T05:23:22;93770.38;;;12.29;70.35
35892;BME280;21993;42.672;23.296;2023-04-26T05:25:47;93775.63;;;12.29;70.85
35892;BME280;21993;42.672;23.296;2023-04-26T05:28:13;93780.38;;;12.26;70.82
35892;BME280;21993;42.672;23.296;2023-04-26T05:30:38;93775.44;;;12.31;70.97
35892;BME280;21993;42.672;23.296;2023-04-26T05:33:04;93777.44;;;12.29;71.09
35892;BME280;21993;42.672;23.296;2023-04-26T05:35:31;93790.75;;;12.27;71.31
35892;BME280;21993;42.672;23.296;2023-04-26T05:37:56;93786.00;;;12.23;70.89
35892;BME280;21993;42.672;23.296;2023-04-26T05:40:22;93776.66;;;12.12;70.98
35892;BME280;21993;42.672;23.296;2023-04-26T05:42:49;93791.91;;;12.25;70.94
35892;BME280;21993;42.672;23.296;2023-04-26T05:45:15;93791.41;;;12.29;70.34
35892;BME280;21993;42.672;23.296;2023-04-26T05:47:40;93794.19;;;12.36;70.67
35892;BME280;21993;42.672;23.296;2023-04-26T05:50:12;93795.03;;;12.36;70.64
35892;BME280;21993;42.672;23.296;2023-04-26T05:52:37;93799.28;;;12.37;70.91
35892;BME280;21993;42.672;23.296;2023-04-26T05:55:03;93798.09;;;12.48;70.97
35892;BME280;21993;42.672;23.296;2023-04-26T05:57:30;93793.13;;;12.61;69.94
35892;BME280;21993;42.672;23.296;2023-04-26T05:59:55;93802.72;;;12.85;69.54
35892;BME280;21993;42.672;23.296;2023-04-26T06:02:21;93793.97;;;12.93;69.33
35892;BME280;21993;42.672;23.296;2023-04-26T06:04:46;93798.69;;;13.06;68.75
35892;BME280;21993;42.672;23.296;2023-04-26T06:07:12;93792.09;;;13.02;68.32
35892;BME280;21993;42.672;23.296;2023-04-26T06:09:37;93797.38;;;13.02;68.72
35892;BME280;21993;42.672;23.296;2023-04-26T06:12:03;93792.63;;;12.97;69.12
35892;BME280;21993;42.672;23.296;2023-04-26T06:14:28;93795.78;;;12.92;69.45
35892;BME280;21993;42.672;23.296;2023-04-26T06:16:55;93799.22;;;12.93;69.73
35892;BME280;21993;42.672;23.296;2023-04-26T06:19:20;93787.16;;;13.07;69.74
35892;BME280;21993;42.672;23.296;2023-04-26T06:21:46;93801.59;;;13.11;67.65
35892;BME280;21993;42.672;23.296;2023-04-26T06:24:13;93796.97;;;13.21;65.17
35892;BME280;21993;42.672;23.296;2023-04-26T06:26:38;93789.47;;;13.33;64.66
35892;BME280;21993;42.672;23.296;2023-04-26T06:29:04;93797.78;;;13.44;63.61
35892;BME280;21993;42.672;23.296;2023-04-26T06:31:30;93797.28;;;13.49;62.99
35892;BME280;21993;42.672;23.296;2023-04-26T06:33:56;93804.75;;;13.45;62.74
35892;BME280;21993;42.672;23.296;2023-04-26T06:36:21;93803.78;;;13.61;63.53
35892;BME280;21993;42.672;23.296;2023-04-26T06:38:47;93814.56;;;13.51;63.40
35892;BME280;21993;42.672;23.296;2023-04-26T06:41:12;93813.03;;;13.57;62.05
35892;BME280;21993;42.672;23.296;2023-04-26T06:43:38;93801.81;;;13.63;61.36
35892;BME280;21993;42.672;23.296;2023-04-26T06:46:03;93810.41;;;13.57;62.28
35892;BME280;21993;42.672;23.296;2023-04-26T06:48:29;93804.44;;;13.63;62.29
35892;BME280;21993;42.672;23.296;2023-04-26T06:50:54;93813.81;;;13.66;62.31
35892;BME280;21993;42.672;23.296;2023-04-26T06:53:20;93809.16;;;13.68;62.04
35892;BME280;21993;42.672;23.296;2023-04-26T06:55:45;93806.47;;;13.76;61.33
35892;BME280;21993;42.672;23.296;2023-04-26T06:58:11;93815.00;;;14.01;60.63
35892;BME280;21993;42.672;23.296;2023-04-26T07:00:36;93810.03;;;14.06;60.43
35892;BME280;21993;42.672;23.296;2023-04-26T07:03:02;93809.56;;;14.17;60.55
35892;BME280;21993;42.672;23.296;2023-04-26T07:05:27;93808.38;;;14.20;60.62
35892;BME280;21993;42.672;23.296;2023-04-26T07:07:52;93819.44;;;14.23;59.97
35892;BME280;21993;42.672;23.296;2023-04-26T07:10:18;93807.06;;;14.39;59.78
35892;BME280;21993;42.672;23.296;2023-04-26T07:12:45;93815.38;;;14.50;59.60
35892;BME280;21993;42.672;23.296;2023-04-26T07:15:10;93809.00;;;14.59;58.70
35892;BME280;21993;42.672;23.296;2023-04-26T07:17:36;93805.72;;;14.57;58.79
35892;BME280;21993;42.672;23.296;2023-04-26T07:20:01;93811.13;;;14.64;58.98
35892;BME280;21993;42.672;23.296;2023-04-26T07:22:28;93812.09;;;14.78;57.71
35892;BME280;21993;42.672;23.296;2023-04-26T07:24:53;93812.28;;;14.91;55.68
35892;BME280;21993;42.672;23.296;2023-04-26T07:27:19;93806.81;;;14.78;56.36
35892;BME280;21993;42.672;23.296;2023-04-26T07:29:44;93806.53;;;14.87;55.37
35892;BME280;21993;42.672;23.296;2023-04-26T07:32:10;93802.00;;;14.81;54.74
35892;BME280;21993;42.672;23.296;2023-04-26T07:34:35;93802.63;;;14.83;54.63
35892;BME280;21993;42.672;23.296;2023-04-26T07:37:01;93814.19;;;14.82;54.25
35892;BME280;21993;42.672;23.296;2023-04-26T07:39:26;93818.91;;;14.87;53.62
35892;BME280;21993;42.672;23.296;2023-04-26T07:41:51;93816.84;;;14.97;52.94
35892;BME280;21993;42.672;23.296;2023-04-26T07:44:17;93819.09;;;14.71;53.64
35892;BME280;21993;42.672;23.296;2023-04-26T07:46:42;93832.22;;;14.79;53.32
35892;BME280;21993;42.672;23.296;2023-04-26T07:49:08;93818.13;;;14.72;53.62
35892;BME280;21993;42.672;23.296;2023-04-26T07:51:34;93830.88;;;14.68;52.22
35892;BME280;21993;42.672;23.296;2023-04-26T07:54:00;93833.88;;;14.65;52.99
35892;BME280;21993;42.672;23.296;2023-04-26T07:56:26;93832.50;;;14.69;52.16
35892;BME280;21993;42.672;23.296;2023-04-26T07:58:52;93841.84;;;14.42;53.29
35892;BME280;21993;42.672;23.296;2023-04-26T08:01:18;93830.59;;;14.63;52.22
35892;BME280;21993;42.672;23.296;2023-04-26T08:03:43;93837.97;;;14.53;52.31
35892;BME280;21993;42.672;23.296;2023-04-26T08:06:09;93831.06;;;14.67;53.04
35892;BME280;21993;42.672;23.296;2023-04-26T08:08:34;93838.41;;;14.71;52.33
35892;BME280;21993;42.672;23.296;2023-04-26T08:11:07;93833.13;;;14.86;52.19
35892;BME280;21993;42.672;23.296;2023-04-26T08:13:32;93831.50;;;14.70;52.47
35892;BME280;21993;42.672;23.296;2023-04-26T08:15:58;93830.06;;;14.82;51.64
35892;BME280;21993;42.672;23.296;2023-04-26T08:18:23;93834.03;;;14.78;51.73
35892;BME280;21993;42.672;23.296;2023-04-26T08:20:49;93832.13;;;14.87;51.84
35892;BME280;21993;42.672;23.296;2023-04-26T08:23:15;93830.88;;;14.83;52.19
35892;BME280;21993;42.672;23.296;2023-04-26T08:25:40;93831.41;;;14.93;51.43
35892;BME280;21993;42.672;23.296;2023-04-26T08:28:06;93830.88;;;14.98;51.93
35892;BME280;21993;42.672;23.296;2023-04-26T08:30:32;93838.13;;;15.10;51.56
35892;BME280;21993;42.672;23.296;2023-04-26T08:32:58;93834.38;;;15.05;52.57
35892;BME280;21993;42.672;23.296;2023-04-26T08:35:24;93836.06;;;15.06;52.02
35892;BME280;21993;42.672;23.296;2023-04-26T08:37:50;93837.69;;;15.07;51.73
35892;BME280;21993;42.672;23.296;2023-04-26T08:40:21;93827.13;;;15.07;52.94
35892;BME280;21993;42.672;23.296;2023-04-26T08:42:47;93828.84;;;15.00;52.58
35892;BME280;21993;42.672;23.296;2023-04-26T08:45:13;93827.16;;;15.28;51.58
35892;BME280;21993;42.672;23.296;2023-04-26T08:50:14;93833.81;;;15.39;50.98
35892;BME280;21993;42.672;23.296;2023-04-26T08:52:40;93830.88;;;15.34;52.25
35892;BME280;21993;42.672;23.296;2023-04-26T08:55:10;93830.50;;;15.37;50.86
35892;BME280;21993;42.672;23.296;2023-04-26T08:57:42;93830.06;;;15.33;50.69
35892;BME280;21993;42.672;23.296;2023-04-26T09:00:08;93832.50;;;15.13;50.97
35892;BME280;21993;42.672;23.296;2023-04-26T09:02:51;93832.19;;;15.23;50.85
35892;BME280;21993;42.672;23.296;2023-04-26T09:05:18;93830.63;;;15.29;50.91
35892;BME280;21993;42.672;23.296;2023-04-26T09:07:48;93843.59;;;15.24;50.28
35892;BME280;21993;42.672;23.296;2023-04-26T09:10:17;93839.94;;;15.25;50.66
35892;BME280;21993;42.672;23.296;2023-04-26T09:12:50;93845.75;;;15.35;50.64
35892;BME280;21993;42.672;23.296;2023-04-26T09:15:16;93837.91;;;15.41;50.12
35892;BME280;21993;42.672;23.296;2023-04-26T09:17:42;93850.94;;;15.43;50.39
35892;BME280;21993;42.672;23.296;2023-04-26T09:22:46;93844.72;;;15.36;49.71
35892;BME280;21993;42.672;23.296;2023-04-26T09:25:13;93848.78;;;15.32;50.16
35892;BME280;21993;42.672;23.296;2023-04-26T09:27:41;93842.44;;;15.47;50.06
35892;BME280;21993;42.672;23.296;2023-04-26T09:35:23;93830.28;;;15.53;49.69
35892;BME280;21993;42.672;23.296;2023-04-26T09:37:56;93841.94;;;15.59;50.21
35892;BME280;21993;42.672;23.296;2023-04-26T09:40:28;93832.72;;;15.55;49.19
35892;BME280;21993;42.672;23.296;2023-04-26T09:45:31;93830.97;;;15.76;48.97
35892;BME280;21993;42.672;23.296;2023-04-26T09:48:27;93839.69;;;15.56;49.66
35892;BME280;21993;42.672;23.296;2023-04-26T09:50:58;93832.03;;;15.61;49.58
35892;BME280;21993;42.672;23.296;2023-04-26T09:53:50;93838.41;;;15.66;48.58
35892;BME280;21993;42.672;23.296;2023-04-26T09:56:18;93831.47;;;15.65;50.10
35892;BME280;21993;42.672;23.296;2023-04-26T10:01:17;93826.59;;;15.69;49.37
35892;BME280;21993;42.672;23.296;2023-04-26T10:03:44;93821.19;;;15.77;49.19
35892;BME280;21993;42.672;23.296;2023-04-26T10:06:11;93824.41;;;15.94;48.49
35892;BME280;21993;42.672;23.296;2023-04-26T10:08:36;93817.91;;;16.18;47.14
35892;BME280;21993;42.672;23.296;2023-04-26T10:11:03;93826.19;;;16.36;45.77
35892;BME280;21993;42.672;23.296;2023-04-26T10:13:32;93822.28;;;16.32;46.00
35892;BME280;21993;42.672;23.296;2023-04-26T10:15:59;93822.28;;;16.32;45.57
35892;BME280;21993;42.672;23.296;2023-04-26T10:18:25;93819.88;;;16.37;45.08
35892;BME280;21993;42.672;23.296;2023-04-26T10:20:53;93820.94;;;16.43;45.49
35892;BME280;21993;42.672;23.296;2023-04-26T10:23:21;93813.19;;;16.41;45.16
35892;BME280;21993;42.672;23.296;2023-04-26T10:25:50;93813.19;;;16.41;45.01
35892;BME280;21993;42.672;23.296;2023-04-26T10:28:17;93809.13;;;16.45;45.25
35892;BME280;21993;42.672;23.296;2023-04-26T10:30:56;93811.25;;;16.56;45.16
35892;BME280;21993;42.672;23.296;2023-04-26T10:33:23;93818.91;;;16.73;44.17
35892;BME280;21993;42.672;23.296;2023-04-26T10:36:09;93811.78;;;16.73;44.08
35892;BME280;21993;42.672;23.296;2023-04-26T10:38:39;93817.72;;;16.75;44.31
35892;BME280;21993;42.672;23.296;2023-04-26T10:41:30;93809.06;;;16.67;43.61
35892;BME280;21993;42.672;23.296;2023-04-26T10:43:56;93817.66;;;16.69;43.56
35892;BME280;21993;42.672;23.296;2023-04-26T10:46:39;93822.81;;;16.77;42.87
35892;BME280;21993;42.672;23.296;2023-04-26T10:49:12;93812.91;;;16.64;42.62
35892;BME280;21993;42.672;23.296;2023-04-26T10:51:38;93818.03;;;16.66;42.64
35892;BME280;21993;42.672;23.296;2023-04-26T10:54:04;93805.75;;;16.58;43.04
35892;BME280;21993;42.672;23.296;2023-04-26T10:59:09;93806.41;;;16.67;43.28
35892;BME280;21993;42.672;23.296;2023-04-26T11:01:35;93802.38;;;16.71;42.83
35892;BME280;21993;42.672;23.296;2023-04-26T11:04:08;93798.47;;;16.67;42.98
35892;BME280;21993;42.672;23.296;2023-04-26T11:06:55;93804.84;;;16.72;42.00
35892;BME280;21993;42.672;23.296;2023-04-26T11:09:39;93805.94;;;16.84;41.96
35892;BME280;21993;42.672;23.296;2023-04-26T11:12:13;93810.56;;;16.76;42.15
35892;BME280;21993;42.672;23.296;2023-04-26T11:14:40;93802.13;;;16.66;42.46
35892;BME280;21993;42.672;23.296;2023-04-26T11:17:06;93808.94;;;16.75;42.24
35892;BME280;21993;42.672;23.296;2023-04-26T11:19:32;93811.19;;;16.78;42.33
35892;BME280;21993;42.672;23.296;2023-04-26T11:21:58;93805.69;;;16.79;42.41
35892;BME280;21993;42.672;23.296;2023-04-26T11:24:29;93805.94;;;16.84;42.63
35892;BME280;21993;42.672;23.296;2023-04-26T11:26:55;93799.25;;;16.95;41.58
35892;BME280;21993;42.672;23.296;2023-04-26T11:29:22;93809.66;;;16.97;42.39
35892;BME280;21993;42.672;23.296;2023-04-26T11:31:55;93817.00;;;16.95;41.64
35892;BME280;21993;42.672;23.296;2023-04-26T11:34:31;93808.06;;;17.02;41.44
35892;BME280;21993;42.672;23.296;2023-04-26T11:36:58;93805.16;;;16.97;41.38
35892;BME280;21993;42.672;23.296;2023-04-26T11:39:23;93816.22;;;17.01;40.50
35892;BME280;21993;42.672;23.296;2023-04-26T11:41:49;93808.66;;;17.04;39.85
35892;BME280;21993;42.672;23.296;2023-04-26T11:44:18;93803.34;;;16.98;39.97
35892;BME280;21993;42.672;23.296;2023-04-26T11:46:48;93812.59;;;17.15;39.97
35892;BME280;21993;42.672;23.296;2023-04-26T11:49:15;93814.44;;;17.14;41.30
35892;BME280;21993;42.672;23.296;2023-04-26T11:51:41;93811.97;;;17.13;41.27
35892;BME280;21993;42.672;23.296;2023-04-26T11:54:07;93810.16;;;17.20;39.76
35892;BME280;21993;42.672;23.296;2023-04-26T11:56:33;93800.56;;;17.12;39.73
35892;BME280;21993;42.672;23.296;2023-04-26T11:58:58;93800.34;;;17.07;40.01
35892;BME280;21993;42.672;23.296;2023-04-26T12:01:26;93809.75;;;17.23;39.70
35892;BME280;21993;42.672;23.296;2023-04-26T12:03:58;93801.97;;;17.15;40.23
35892;BME280;21993;42.672;23.296;2023-04-26T12:06:34;93800.50;;;17.06;40.24
35892;BME280;21993;42.672;23.296;2023-04-26T12:09:05;93807.66;;;16.99;41.01
35892;BME280;21993;42.672;23.296;2023-04-26T12:11:31;93792.53;;;16.93;40.92
35892;BME280;21993;42.672;23.296;2023-04-26T12:13:57;93792.72;;;16.91;41.09
35892;BME280;21993;42.672;23.296;2023-04-26T12:16:22;93797.41;;;16.96;41.06
35892;BME280;21993;42.672;23.296;2023-04-26T12:18:51;93793.16;;;17.01;41.01
35892;BME280;21993;42.672;23.296;2023-04-26T12:21:17;93796.75;;;16.87;40.82
35892;BME280;21993;42.672;23.296;2023-04-26T12:23:42;93805.97;;;16.91;40.68
35892;BME280;21993;42.672;23.296;2023-04-26T12:26:12;93787.63;;;16.96;40.74
35892;BME280;21993;42.672;23.296;2023-04-26T12:28:38;93788.50;;;17.10;40.33
35892;BME280;21993;42.672;23.296;2023-04-26T12:31:03;93794.44;;;17.12;39.97
35892;BME280;21993;42.672;23.296;2023-04-26T12:33:30;93793.34;;;16.93;40.23
35892;BME280;21993;42.672;23.296;2023-04-26T12:35:57;93795.38;;;16.91;39.99
35892;BME280;21993;42.672;23.296;2023-04-26T12:38:24;93799.81;;;16.84;39.65
35892;BME280;21993;42.672;23.296;2023-04-26T12:40:50;93794.56;;;16.91;40.02
35892;BME280;21993;42.672;23.296;2023-04-26T12:43:15;93798.34;;;16.81;40.40
35892;BME280;21993;42.672;23.296;2023-04-26T12:45:41;93784.78;;;16.91;40.31
35892;BME280;21993;42.672;23.296;2023-04-26T12:48:06;93782.44;;;16.81;41.60
35892;BME280;21993;42.672;23.296;2023-04-26T12:50:32;93785.03;;;16.68;41.50
35892;BME280;21993;42.672;23.296;2023-04-26T12:52:57;93780.16;;;16.72;41.59
35892;BME280;21993;42.672;23.296;2023-04-26T12:55:23;93784.06;;;16.76;41.28
35892;BME280;21993;42.672;23.296;2023-04-26T12:57:49;93785.34;;;16.86;41.78
35892;BME280;21993;42.672;23.296;2023-04-26T13:00:16;93791.47;;;16.87;42.24
35892;BME280;21993;42.672;23.296;2023-04-26T13:02:45;93797.75;;;16.79;39.95
35892;BME280;21993;42.672;23.296;2023-04-26T13:05:11;93792.47;;;16.86;40.12
35892;BME280;21993;42.672;23.296;2023-04-26T13:07:38;93800.88;;;16.61;41.23